Hawaii METAR Reports

 

PHOG - Kahului, Hawaii, USA
Distance from station: WNW 8mi, 13km
Updated: Tue, 18-Dec-2018 10:54am HST
Few Clouds
Few Clouds
 Wind from N
Wind: N 8 mph , 13 km/h
Temperature: 81°F , 27°C
Heat Index: 83°F , 28°C
Dew Point: 64°F , 18°C
Humidity: 58%
Barometer: 30.11 inHg , 1019.6 hPa
Clouds: Few Clouds
Visibility: 10 miles , 16 km
Cloud details: Few Clouds 4500 ft
2018/12/18 20:54 PHOG 182054Z 36007KT 10SM FEW045 27/18 A3011 RMK AO2 SLP202 T02670178 58001
PHJH - Lahaina/West Mau, Hawaii, USA
Distance from station: WNW 24mi, 39km
Updated: Tue, 18-Dec-2018 10:45am HST
Few Clouds
Few Clouds
 Wind from varies
Wind: varies 6 mph , 9 km/h
Temperature: 79°F , 26°C
Dew Point: 59°F , 15°C
Humidity: 51%
Barometer: 30.13 inHg , 1020.3 hPa
Clouds: Few Clouds
Visibility: 15 miles , 24 km
Cloud details: Few Clouds 5000 ft
2018/12/18 20:45 PHJH 182045Z VRB05KT 15SM FEW050 26/15 A3013
 
PHNY - Lanai City Airpo, Hawaii, USA
Distance from station: W 40mi, 65km
Updated: Tue, 18-Dec-2018 10:56am HST
Clear
Clear
 Wind from varies
Wind: varies 6 mph , 9 km/h
Temperature: 73°F , 23°C
Dew Point: 59°F , 15°C
Humidity: 61%
Barometer: 30.15 inHg , 1021 hPa
Clouds: Clear
Visibility: 10 miles , 16 km
2018/12/18 20:56 PHNY 182056Z AUTO VRB05KT 10SM CLR 23/15 A3015 RMK AO2 SLP193 T02280150 58004
PHMK - Molokai, Hawaii, USA
Distance from station: WNW 55mi, 88km
Updated: Tue, 18-Dec-2018 10:54am HST
Clear
Clear
 Wind from NNE
Wind: NNE 7 mph , 11 km/h
Temperature: 73°F , 23°C
Dew Point: 61°F , 16°C
Humidity: 65%
Barometer: 30.12 inHg , 1020 hPa
Clouds: Clear
Visibility: 10 miles , 16 km
2018/12/18 20:54 PHMK 182054Z 02006KT 10SM CLR 23/16 A3012 RMK AO2 SLP204 T02330161 58006
 
PHKO - Kailua/Kona, Hawaii, USA
Distance from station: SSE 79mi, 128km
Updated: Tue, 18-Dec-2018 10:53am HST
Few Clouds
Few Clouds
 Wind from W
Wind: W 8 mph , 13 km/h
Temperature: 81°F , 27°C
Heat Index: 82°F , 28°C
Dew Point: 63°F , 17°C
Humidity: 54%
Barometer: 30.09 inHg , 1019 hPa
Clouds: Few Clouds
Visibility: 10 miles , 16 km
Cloud details: Few Clouds 15000 ft
2018/12/18 20:53 PHKO 182053Z 27007KT 10SM FEW150 27/17 A3009 RMK AO2 SLP189 T02670167 58006
PHSF - Bradshaw Aaf/Haw, Hawaii, USA
Distance from station: SE 90mi, 145km
Updated: Tue, 18-Dec-2018 10:56am HST
Clear
Clear
 Wind from WSW
Wind: WSW 9 mph , 15 km/h
Temperature: 64°F , 18°C
Dew Point: 32°F , 0°C
Humidity: 30%
Barometer: 30.39 inHg , 1029.1 hPa
Clouds: Clear
Visibility: 10 miles , 16 km
2018/12/18 20:56 PHSF 182056Z AUTO 24008KT 10SM CLR 18/00 A3039 RMK AO2 SLP191 WND DATA ESTMD T01780001 57006 PWINO $
 
PHNG - Kaneohe Mcas, Hawaii, USA
Distance from station: WNW 102mi, 164km
Updated: Tue, 18-Dec-2018 10:57am HST
Few Clouds
Few Clouds
 Wind from NNW
Wind: NNW 7 mph , 11 km/h
Temperature: 75°F , 24°C
Dew Point: 68°F , 20°C
Humidity: 78%
Barometer: 30.10 inHg , 1019.3 hPa
Clouds: Few Clouds
Visibility: 10 miles , 16 km
Cloud details: Few Clouds 2400 ft
Few Clouds 3200 ft
2018/12/18 20:57 PHNG 182057Z 34006KT 10SM FEW024 FEW032 24/20 A3010 RMK AO2 SLP186 60002 T02440200 58003 $